createdAt,value
2022-08-12T00:02:04.338Z,83.10
2022-08-12T00:04:47.459Z,83.40
2022-08-12T00:07:33.236Z,83.40
2022-08-12T00:10:18.810Z,83.40
2022-08-12T00:13:04.581Z,83.70
2022-08-12T00:15:52.368Z,83.80
2022-08-12T00:18:38.073Z,84.00
2022-08-12T00:21:23.776Z,84.10
2022-08-12T00:24:11.027Z,84.60
2022-08-12T00:27:00.361Z,85.10
2022-08-12T00:29:47.957Z,85.30
2022-08-12T00:32:54.495Z,85.50
2022-08-12T00:35:40.717Z,85.40
2022-08-12T00:38:26.855Z,85.70
2022-08-12T00:41:13.789Z,85.80
2022-08-12T00:43:43.893Z,86.60
2022-08-12T00:46:30.049Z,86.90
2022-08-12T00:48:58.380Z,86.90
2022-08-12T00:51:45.809Z,86.90
2022-08-12T00:54:13.126Z,87.20
2022-08-12T00:56:41.670Z,87.30
2022-08-12T00:59:09.240Z,87.40
2022-08-12T01:02:02.370Z,88.00
2022-08-12T01:04:46.188Z,87.80
2022-08-12T01:07:32.888Z,87.30
2022-08-12T01:10:19.078Z,87.30
2022-08-12T01:13:07.694Z,87.50
2022-08-12T01:15:49.521Z,87.80
2022-08-12T01:18:20.159Z,87.70
2022-08-12T01:20:52.855Z,88.10
2022-08-12T01:23:59.877Z,88.70
2022-08-12T01:26:47.919Z,88.90
2022-08-12T01:29:26.900Z,89.30
2022-08-12T01:31:59.152Z,89.50
2022-08-12T01:34:36.948Z,89.10
2022-08-12T01:37:10.292Z,89.00
2022-08-12T01:40:35.558Z,89.20
2022-08-12T01:42:51.946Z,89.40
2022-08-12T01:45:24.527Z,88.50
2022-08-12T01:48:00.706Z,88.90
2022-08-12T01:51:06.428Z,88.70
2022-08-12T01:54:04.598Z,89.00
2022-08-12T01:56:49.129Z,89.40
2022-08-12T01:59:42.663Z,89.30
2022-08-12T02:02:13.371Z,89.70
2022-08-12T02:05:23.003Z,90.00
2022-08-12T02:08:34.971Z,90.00
2022-08-12T02:11:31.480Z,90.10
2022-08-12T02:14:35.965Z,90.20
2022-08-12T02:17:56.009Z,90.20
2022-08-12T02:20:51.689Z,90.30
2022-08-12T02:23:27.112Z,90.40
2022-08-12T02:25:59.668Z,90.50
2022-08-12T02:28:27.760Z,90.60
2022-08-12T02:30:57.192Z,90.80
2022-08-12T02:33:25.252Z,90.80
2022-08-12T02:35:54.122Z,91.10
2022-08-12T02:38:23.893Z,91.10
2022-08-12T02:40:54.755Z,91.20
2022-08-12T02:43:37.913Z,91.30
2022-08-12T02:46:13.999Z,91.40
2022-08-12T02:48:52.224Z,91.50
2022-08-12T02:51:29.874Z,91.50
2022-08-12T02:54:05.026Z,91.70
2022-08-12T02:56:40.717Z,91.70
2022-08-12T02:59:17.883Z,91.80
2022-08-12T03:01:50.280Z,91.90
2022-08-12T03:04:26.765Z,92.00
2022-08-12T03:07:04.880Z,92.00
2022-08-12T03:10:04.912Z,92.10
2022-08-12T03:12:25.323Z,92.10
2022-08-12T03:14:55.139Z,92.40
2022-08-12T03:17:37.497Z,92.20
2022-08-12T03:20:10.025Z,92.30
2022-08-12T03:22:44.216Z,92.30
2022-08-12T03:25:25.165Z,92.30
2022-08-12T03:27:57.344Z,92.40
2022-08-12T03:30:28.604Z,92.50
2022-08-12T03:32:56.993Z,92.50
2022-08-12T03:35:40.066Z,92.80
2022-08-12T03:38:12.428Z,92.80
2022-08-12T03:41:16.202Z,92.80
2022-08-12T03:44:26.044Z,92.90
2022-08-12T03:47:49.651Z,92.80
2022-08-12T03:50:37.012Z,92.80
2022-08-12T03:53:25.040Z,92.90
2022-08-12T03:56:11.202Z,93.10
2022-08-12T03:58:57.876Z,93.10
2022-08-12T04:01:27.397Z,93.10
2022-08-12T04:03:55.396Z,93.20
2022-08-12T04:06:34.344Z,93.40
2022-08-12T04:09:05.285Z,93.50
2022-08-12T04:12:01.362Z,93.60
2022-08-12T04:14:29.596Z,93.60
2022-08-12T04:16:57.311Z,93.70
2022-08-12T04:19:26.313Z,93.80
2022-08-12T04:22:03.970Z,93.80
2022-08-12T04:24:36.202Z,93.90
2022-08-12T04:27:09.172Z,94.00
2022-08-12T04:30:16.649Z,94.10
2022-08-12T04:32:26.017Z,94.20
2022-08-12T04:34:53.302Z,94.20
2022-08-12T04:37:20.926Z,94.30
2022-08-12T04:39:49.057Z,94.30
2022-08-12T04:42:16.293Z,94.40
2022-08-12T04:44:44.501Z,94.50
2022-08-12T04:47:14.369Z,94.60
2022-08-12T04:49:45.204Z,94.70
2022-08-12T04:52:13.447Z,94.80
2022-08-12T04:54:40.611Z,94.80
2022-08-12T04:57:09.828Z,94.90
2022-08-12T04:59:46.760Z,95.00
2022-08-12T05:02:22.148Z,95.10
2022-08-12T05:04:52.025Z,95.10
2022-08-12T05:07:20.658Z,95.30
2022-08-12T05:09:59.949Z,95.60
2022-08-12T05:12:51.320Z,95.80
2022-08-12T05:15:29.464Z,95.80
2022-08-12T05:17:59.835Z,95.70
2022-08-12T05:20:29.510Z,95.70
2022-08-12T05:23:13.816Z,95.80
2022-08-12T05:25:46.214Z,95.90
2022-08-12T05:28:14.830Z,96.20
2022-08-12T05:30:43.663Z,96.20
2022-08-12T05:33:12.254Z,96.20
2022-08-12T05:35:42.789Z,96.20
2022-08-12T05:38:30.447Z,96.30
2022-08-12T05:40:57.786Z,96.30
2022-08-12T05:43:28.833Z,96.50
2022-08-12T05:45:56.579Z,96.60
2022-08-12T05:48:24.497Z,96.60
2022-08-12T05:50:53.411Z,96.60
2022-08-12T05:53:20.711Z,96.50
2022-08-12T05:55:47.630Z,96.40
2022-08-12T05:58:14.554Z,96.50
2022-08-12T06:00:42.388Z,96.00
2022-08-12T06:03:09.423Z,95.70
2022-08-12T06:05:52.547Z,95.30
2022-08-12T06:08:23.171Z,94.80
2022-08-12T06:10:50.539Z,94.90
2022-08-12T06:13:28.526Z,94.90
2022-08-12T06:16:07.320Z,94.80
2022-08-12T06:18:35.199Z,95.20
2022-08-12T06:21:02.499Z,95.20
2022-08-12T06:23:30.352Z,94.80
2022-08-12T06:25:58.611Z,95.00
2022-08-12T06:28:26.205Z,94.70
2022-08-12T06:31:25.436Z,95.00
2022-08-12T06:34:01.203Z,95.30
2022-08-12T06:36:33.386Z,94.60
2022-08-12T06:39:01.193Z,93.20
2022-08-12T06:42:05.008Z,92.80
2022-08-12T06:44:33.968Z,92.40
2022-08-12T06:47:01.304Z,92.20
2022-08-12T06:49:33.534Z,92.30
2022-08-12T06:52:00.476Z,91.50
2022-08-12T06:54:31.919Z,90.70
2022-08-12T06:57:57.856Z,90.70
2022-08-12T06:59:48.541Z,90.20
2022-08-12T07:02:15.604Z,90.10
2022-08-12T07:04:43.414Z,90.20
2022-08-12T07:07:10.920Z,89.20
2022-08-12T07:10:03.822Z,89.50
2022-08-12T07:12:30.517Z,90.00
2022-08-12T07:14:59.213Z,90.10
2022-08-12T07:17:36.384Z,90.10
2022-08-12T07:20:29.687Z,90.00
2022-08-12T07:23:01.594Z,89.10
2022-08-12T07:25:40.609Z,89.00
2022-08-12T07:28:16.875Z,89.30
2022-08-12T07:30:46.468Z,88.70
2022-08-12T07:33:15.792Z,89.10
2022-08-12T07:35:47.734Z,89.20
2022-08-12T07:38:37.242Z,88.80
2022-08-12T07:41:15.451Z,88.00
2022-08-12T07:43:52.025Z,88.00
2022-08-12T07:46:21.856Z,87.70
2022-08-12T07:48:51.778Z,88.20
2022-08-12T07:51:25.481Z,88.10
2022-08-12T07:54:00.950Z,87.90
2022-08-12T07:56:31.645Z,87.50
2022-08-12T07:59:01.421Z,87.20
2022-08-12T08:01:29.182Z,87.60
2022-08-12T08:04:18.966Z,86.60
2022-08-12T08:06:48.373Z,87.10
2022-08-12T08:09:18.057Z,86.10
2022-08-12T08:12:03.873Z,86.60
2022-08-12T08:14:31.798Z,86.50
2022-08-12T08:17:01.411Z,86.10
2022-08-12T08:19:29.380Z,85.80
2022-08-12T08:21:58.818Z,84.20
2022-08-12T08:24:27.981Z,84.80
2022-08-12T08:26:56.996Z,85.30
2022-08-12T08:29:24.730Z,85.10
2022-08-12T08:31:58.766Z,85.40
2022-08-12T08:34:54.200Z,84.40
2022-08-12T08:37:20.904Z,84.60
2022-08-12T08:39:48.088Z,83.80
2022-08-12T08:42:33.751Z,83.20
2022-08-12T08:45:12.913Z,82.80
2022-08-12T08:47:46.831Z,82.40
2022-08-12T08:50:15.244Z,81.70
2022-08-12T08:52:47.050Z,82.20
2022-08-12T08:55:20.886Z,81.00
2022-08-12T08:57:54.003Z,78.90
2022-08-12T09:00:22.036Z,78.10
2022-08-12T09:02:59.067Z,76.60
2022-08-12T09:05:43.243Z,76.50
2022-08-12T09:14:18.545Z,73.90
2022-08-12T09:16:45.974Z,73.80
2022-08-12T09:19:27.103Z,73.60
2022-08-12T09:21:55.629Z,74.20
2022-08-12T09:24:22.671Z,73.30
2022-08-12T09:26:54.813Z,73.60
2022-08-12T09:30:08.789Z,71.30
2022-08-12T09:32:29.639Z,70.40
2022-08-12T09:34:56.853Z,70.10
2022-08-12T09:37:26.710Z,69.50
2022-08-12T09:40:03.555Z,69.00
2022-08-12T09:43:17.054Z,68.80
2022-08-12T09:46:06.781Z,67.90
2022-08-12T09:48:36.697Z,69.80
2022-08-12T09:51:10.737Z,70.80
2022-08-12T09:53:45.679Z,67.60
2022-08-12T09:56:58.316Z,66.10
2022-08-12T09:59:09.860Z,67.70
2022-08-12T10:02:43.944Z,69.10
2022-08-12T10:04:30.301Z,65.20
2022-08-12T10:06:58.072Z,66.10
2022-08-12T10:09:34.027Z,65.10
2022-08-12T10:12:31.151Z,66.40
2022-08-12T10:15:01.370Z,66.30
2022-08-12T10:17:28.455Z,64.80
2022-08-12T10:19:55.568Z,63.80
2022-08-12T10:22:39.375Z,64.30
2022-08-12T10:26:34.022Z,63.30
2022-08-12T10:28:38.203Z,64.10
2022-08-12T10:31:06.227Z,66.00
2022-08-12T10:33:43.663Z,62.00
2022-08-12T10:36:39.864Z,61.80
2022-08-12T10:40:05.746Z,62.40
2022-08-12T10:42:29.532Z,62.80
2022-08-12T10:45:07.821Z,62.80
2022-08-12T10:48:07.641Z,60.10
2022-08-12T10:50:35.351Z,61.40
2022-08-12T10:53:19.479Z,62.00
2022-08-12T10:55:50.054Z,61.20
2022-08-12T10:58:30.738Z,60.40
2022-08-12T11:01:50.374Z,59.80
2022-08-12T11:04:23.366Z,59.00
2022-08-12T11:07:05.240Z,59.80
2022-08-12T11:09:51.395Z,60.10
2022-08-12T11:12:55.939Z,60.00
2022-08-12T11:15:19.308Z,60.00
2022-08-12T11:17:54.380Z,59.30
2022-08-12T11:20:30.562Z,59.30
2022-08-12T11:23:04.299Z,58.30
2022-08-12T11:25:58.142Z,59.00
2022-08-12T11:28:34.647Z,58.60
2022-08-12T11:31:06.579Z,57.80
2022-08-12T11:34:04.729Z,58.50
2022-08-12T11:36:22.140Z,57.40
2022-08-12T11:38:51.330Z,58.40
2022-08-12T11:41:31.600Z,58.40
2022-08-12T11:44:30.766Z,58.70
2022-08-12T11:46:53.266Z,57.30
2022-08-12T11:49:31.417Z,57.80
2022-08-12T11:52:01.999Z,57.10
2022-08-12T11:54:30.301Z,56.70
2022-08-12T11:57:00.521Z,57.70
2022-08-12T12:02:20.234Z,56.40
2022-08-12T12:04:52.751Z,56.80
2022-08-12T12:08:36.314Z,56.80
2022-08-12T12:10:12.757Z,56.10
2022-08-12T12:12:41.579Z,56.70
2022-08-12T12:15:25.396Z,56.20
2022-08-12T12:18:05.631Z,55.70
2022-08-12T12:20:34.354Z,55.70
2022-08-12T12:23:01.366Z,56.40
2022-08-12T12:26:07.098Z,55.90
2022-08-12T12:28:36.589Z,55.80
2022-08-12T12:31:04.240Z,55.60
2022-08-12T12:33:57.413Z,55.50
2022-08-12T12:36:24.056Z,56.30
2022-08-12T12:38:57.063Z,55.60
2022-08-12T12:42:40.702Z,55.60
2022-08-12T12:44:13.196Z,55.20
2022-08-12T12:46:40.556Z,55.50
2022-08-12T12:49:15.247Z,54.50
2022-08-12T12:51:51.766Z,54.60
2022-08-12T12:54:29.792Z,55.50
2022-08-12T12:56:57.985Z,53.70
2022-08-12T12:59:54.662Z,53.90
2022-08-12T13:02:15.248Z,54.00
2022-08-12T13:05:00.069Z,54.00
2022-08-12T13:07:54.129Z,53.70
2022-08-12T13:10:14.292Z,53.20
2022-08-12T13:12:42.635Z,53.70
2022-08-12T13:15:45.219Z,53.20
2022-08-12T13:18:05.221Z,53.70
2022-08-12T13:20:38.019Z,52.20
2022-08-12T13:23:36.814Z,52.80
2022-08-12T13:26:01.977Z,52.70
2022-08-12T13:28:30.807Z,53.10
2022-08-12T13:30:59.525Z,53.60
2022-08-12T13:33:29.259Z,51.00
2022-08-12T13:36:18.831Z,51.10
2022-08-12T13:38:52.091Z,51.60
2022-08-12T13:41:33.129Z,50.20
2022-08-12T13:44:01.935Z,50.10
2022-08-12T13:46:28.879Z,50.10
2022-08-12T13:48:56.842Z,50.80
2022-08-12T13:51:25.131Z,50.40
2022-08-12T13:54:11.653Z,50.30
2022-08-12T13:56:41.073Z,49.40
2022-08-12T13:59:08.870Z,49.10
2022-08-12T14:01:40.652Z,49.40
2022-08-12T14:04:11.446Z,49.00
2022-08-12T14:06:40.449Z,49.20
2022-08-12T14:09:17.384Z,48.90
2022-08-12T14:11:53.982Z,49.00
2022-08-12T14:14:27.724Z,49.10
2022-08-12T14:17:00.273Z,49.00
2022-08-12T14:19:31.672Z,48.30
2022-08-12T14:22:04.981Z,48.30
2022-08-12T14:24:40.593Z,49.90
2022-08-12T14:27:10.514Z,49.70
2022-08-12T14:30:04.512Z,50.80
2022-08-12T14:32:34.863Z,49.30
2022-08-12T14:35:07.070Z,47.60
2022-08-12T14:37:54.797Z,48.60
2022-08-12T14:40:29.744Z,48.20
2022-08-12T14:42:58.568Z,48.10
2022-08-12T14:45:44.471Z,48.30
2022-08-12T14:48:15.505Z,47.60
2022-08-12T14:51:03.105Z,47.60
2022-08-12T14:57:05.760Z,48.70
2022-08-12T14:59:26.739Z,47.30
2022-08-12T15:02:20.556Z,46.50
2022-08-12T15:04:59.595Z,47.60
2022-08-12T15:07:33.405Z,47.20
2022-08-12T15:10:13.548Z,47.00
2022-08-12T15:12:40.891Z,47.00
2022-08-12T15:15:10.412Z,47.00
2022-08-12T15:17:39.698Z,47.00
2022-08-12T15:20:31.365Z,46.80
2022-08-12T15:22:57.889Z,45.80
2022-08-12T15:25:28.670Z,47.00
2022-08-12T15:28:04.066Z,46.40
2022-08-12T15:30:40.771Z,45.40
2022-08-12T15:33:12.637Z,46.60
2022-08-12T15:35:52.792Z,45.50
2022-08-12T15:38:27.735Z,46.20
2022-08-12T15:40:56.741Z,46.40
2022-08-12T15:44:16.925Z,45.60
2022-08-12T15:46:16.300Z,44.90
2022-08-12T15:48:47.621Z,44.20
2022-08-12T15:51:59.198Z,44.30
2022-08-12T15:54:33.472Z,45.00
2022-08-12T15:57:08.300Z,44.40
2022-08-12T16:00:00.563Z,45.20
2022-08-12T16:02:27.022Z,45.00
2022-08-12T16:04:56.487Z,44.70
2022-08-12T16:07:25.993Z,45.10
2022-08-12T16:10:08.621Z,43.10
2022-08-12T16:12:55.022Z,43.20
2022-08-12T16:15:26.257Z,43.10
2022-08-12T16:18:18.991Z,41.80
2022-08-12T16:20:46.933Z,44.50
2022-08-12T16:23:36.029Z,41.60
2022-08-12T16:26:15.080Z,42.90
2022-08-12T16:28:47.143Z,41.70
2022-08-12T16:31:23.210Z,42.00
2022-08-12T16:34:00.012Z,43.70
2022-08-12T16:36:31.727Z,41.30
2022-08-12T16:39:01.713Z,41.70
2022-08-12T16:41:38.127Z,42.00
2022-08-12T16:44:08.959Z,41.30
2022-08-12T16:46:37.479Z,40.50
2022-08-12T16:49:08.960Z,40.70
2022-08-12T16:51:46.336Z,40.80
2022-08-12T16:54:16.574Z,40.70
2022-08-12T16:56:57.882Z,41.70
2022-08-12T16:59:30.870Z,41.40
2022-08-12T17:02:31.567Z,41.70
2022-08-12T17:05:03.563Z,42.80
2022-08-12T17:07:36.812Z,44.00
2022-08-12T17:10:11.922Z,42.30
2022-08-12T17:12:39.382Z,41.40
2022-08-12T17:15:41.277Z,42.30
2022-08-12T17:18:39.490Z,42.60
2022-08-12T17:20:47.356Z,42.50
2022-08-12T17:23:17.400Z,42.00
2022-08-12T17:25:50.899Z,42.70
2022-08-12T17:28:20.048Z,40.80
2022-08-12T17:30:54.467Z,41.40
2022-08-12T17:33:34.198Z,43.10
2022-08-12T17:36:03.121Z,42.40
2022-08-12T17:38:30.698Z,43.20
2022-08-12T17:40:58.835Z,42.20
2022-08-12T17:43:52.141Z,42.70
2022-08-12T17:46:23.665Z,41.80
2022-08-12T17:48:59.525Z,42.30
2022-08-12T17:51:31.619Z,42.10
2022-08-12T17:54:10.221Z,42.30
2022-08-12T17:56:43.073Z,42.20
2022-08-12T17:59:12.090Z,42.30
2022-08-12T18:01:44.461Z,42.70
2022-08-12T18:04:22.170Z,43.40
2022-08-12T18:07:02.968Z,43.70
2022-08-12T18:09:36.519Z,44.20
2022-08-12T18:12:34.795Z,44.60
2022-08-12T18:15:08.849Z,45.20
2022-08-12T18:17:46.947Z,45.60
2022-08-12T18:20:17.505Z,46.10
2022-08-12T18:22:46.731Z,47.00
2022-08-12T18:26:14.728Z,47.00
2022-08-12T18:28:27.502Z,47.60
2022-08-12T18:31:03.103Z,47.20
2022-08-12T18:33:43.845Z,47.60
2022-08-12T18:36:13.943Z,48.50
2022-08-12T18:38:45.002Z,48.90
2022-08-12T18:41:33.605Z,49.20
2022-08-12T18:44:09.711Z,50.00
2022-08-12T18:46:55.253Z,50.30
2022-08-12T18:49:39.643Z,50.50
2022-08-12T18:52:11.363Z,49.40
2022-08-12T18:54:49.083Z,49.80
2022-08-12T18:57:46.088Z,51.20
2022-08-12T19:00:22.238Z,51.50
2022-08-12T19:02:53.333Z,52.00
2022-08-12T19:05:20.873Z,52.30
2022-08-12T19:07:59.885Z,52.50
2022-08-12T19:10:30.552Z,53.10
2022-08-12T19:13:23.250Z,55.00
2022-08-12T19:15:57.452Z,55.40
2022-08-12T19:18:30.811Z,54.80
2022-08-12T19:21:11.789Z,54.60
2022-08-12T19:23:43.919Z,54.90
2022-08-12T19:26:12.536Z,54.60
2022-08-12T19:28:41.418Z,54.90
2022-08-12T19:31:56.387Z,54.80
2022-08-12T19:35:07.041Z,55.00
2022-08-12T19:37:22.830Z,55.20
2022-08-12T19:40:09.685Z,55.40
2022-08-12T19:43:00.597Z,55.30
2022-08-12T19:45:43.459Z,55.50
2022-08-12T19:48:20.708Z,53.60
2022-08-12T19:50:52.386Z,54.30
2022-08-12T19:53:24.549Z,54.60
2022-08-12T19:55:53.532Z,55.40
2022-08-12T19:58:21.668Z,55.50
2022-08-12T20:00:56.383Z,54.80
2022-08-12T20:03:38.221Z,54.80
2022-08-12T20:06:14.056Z,54.60
2022-08-12T20:08:48.628Z,54.00
2022-08-12T20:12:14.441Z,53.40
2022-08-12T20:14:07.212Z,53.90
2022-08-12T20:19:53.275Z,54.80
2022-08-12T20:22:24.016Z,54.40
2022-08-12T20:25:00.922Z,54.80
2022-08-12T20:28:02.405Z,53.70
2022-08-12T20:30:37.741Z,54.60
2022-08-12T20:33:18.696Z,54.60
2022-08-12T20:36:13.394Z,54.40
2022-08-12T20:38:39.749Z,55.20
2022-08-12T20:41:17.715Z,55.60
2022-08-12T20:43:50.677Z,55.40
2022-08-12T20:46:20.100Z,56.40
2022-08-12T20:48:54.785Z,56.40
2022-08-12T20:51:22.848Z,56.50
2022-08-12T20:53:57.719Z,56.20
2022-08-12T20:56:36.884Z,56.30
2022-08-12T20:59:11.630Z,56.10
2022-08-12T21:01:48.349Z,55.90
2022-08-12T21:04:36.460Z,57.10
2022-08-12T21:07:09.187Z,56.90
2022-08-12T21:09:44.722Z,56.80
2022-08-12T21:12:27.399Z,57.30
2022-08-12T21:15:18.099Z,57.00
2022-08-12T21:18:11.221Z,57.30
2022-08-12T21:20:50.636Z,57.70
2022-08-12T21:23:20.948Z,57.90
2022-08-12T21:25:49.002Z,57.60
2022-08-12T21:28:18.996Z,58.20
2022-08-12T21:31:11.484Z,57.80
2022-08-12T21:33:58.738Z,58.30
2022-08-12T21:36:34.825Z,58.10
2022-08-12T21:39:18.831Z,58.30
2022-08-12T21:41:51.559Z,58.60
2022-08-12T21:44:24.656Z,58.40
2022-08-12T21:47:21.163Z,58.60
2022-08-12T21:49:53.863Z,58.20
2022-08-12T21:52:28.209Z,58.10
2022-08-12T21:55:04.219Z,58.90
2022-08-12T21:57:51.435Z,59.40
2022-08-12T22:00:33.279Z,59.50
2022-08-12T22:04:10.891Z,59.70
2022-08-12T22:06:30.654Z,60.10
2022-08-12T22:09:02.677Z,60.50
2022-08-12T22:11:41.499Z,60.60
2022-08-12T22:14:18.059Z,60.20
2022-08-12T22:16:52.694Z,59.80
2022-08-12T22:19:20.947Z,59.80
2022-08-12T22:21:54.799Z,59.90
2022-08-12T22:24:26.381Z,60.00
2022-08-12T22:26:58.174Z,60.90
2022-08-12T22:29:43.901Z,61.20
2022-08-12T22:32:13.256Z,61.40
2022-08-12T22:34:44.816Z,61.60
2022-08-12T22:37:19.591Z,61.80
2022-08-12T22:39:49.022Z,61.70
2022-08-12T22:42:36.054Z,62.80
2022-08-12T22:45:23.052Z,63.00
2022-08-12T22:47:55.636Z,62.20
2022-08-12T22:50:29.400Z,62.70
2022-08-12T22:53:16.088Z,63.20
2022-08-12T22:55:59.809Z,62.80
2022-08-12T22:58:40.549Z,62.90
2022-08-12T23:01:10.823Z,63.40
2022-08-12T23:03:48.930Z,63.60
2022-08-12T23:06:23.686Z,64.00
2022-08-12T23:08:52.000Z,64.30
2022-08-12T23:11:23.352Z,64.40
2022-08-12T23:14:00.817Z,64.60
2022-08-12T23:16:33.379Z,64.20
2022-08-12T23:19:38.131Z,64.70
2022-08-12T23:23:05.844Z,64.70
2022-08-12T23:24:56.704Z,65.50
2022-08-12T23:27:52.159Z,65.10
2022-08-12T23:30:32.050Z,64.80
2022-08-12T23:33:19.809Z,64.70
2022-08-12T23:35:59.313Z,64.70
2022-08-12T23:38:32.762Z,65.50
2022-08-12T23:41:02.430Z,65.10
2022-08-12T23:43:40.045Z,65.20
2022-08-12T23:46:09.684Z,65.30
2022-08-12T23:48:37.707Z,65.30
2022-08-12T23:51:22.614Z,65.00
2022-08-12T23:54:00.088Z,64.90
2022-08-12T23:56:33.773Z,64.90
2022-08-12T23:59:10.154Z,65.20
